Aviation Digital Data Service (ADDS)

Output produced by METARs form (0941 UTC 19 July 2018)
found at http://aviationweather.gov/adds/metars/
 
KGGG 190853Z AUTO 21007KT 10SM CLR 28/24 A2988 RMK AO2 SLP110 T02830239 53001